Time;durP1;ratioP1;P1;durP2;ratioP2;P2;SDS_P1;SDS_P2;PMS_P1;PMS_P2;Temp;Humidity;BMP_temperature;BMP_pressure;BME280_temperature;BME280_humidity;BME280_pressure;Samples;Min_cycle;Max_cycle;Signal;HPM_P1;HPM_P2
2023/12/28 00:02:18;;;;;;;6.20;3.50;;;9.10;99.90;;;;;;5058284;28;20038;-75
2023/12/28 00:04:44;;;;;;;6.35;3.05;;;9.00;99.90;;;;;;5058978;28;20047;-75
2023/12/28 00:07:09;;;;;;;8.00;3.63;;;9.10;99.90;;;;;;5058400;28;20052;-75
2023/12/28 00:09:35;;;;;;;8.00;3.60;;;9.00;99.90;;;;;;5058271;28;20530;-75
2023/12/28 00:12:00;;;;;;;5.43;3.28;;;9.10;99.90;;;;;;5076297;28;20111;-75
2023/12/28 00:14:26;;;;;;;8.82;4.47;;;9.20;99.90;;;;;;5058264;28;20509;-75
2023/12/28 00:16:52;;;;;;;4.60;3.85;;;9.10;99.90;;;;;;5041421;28;20040;-75
2023/12/28 00:19:19;;;;;;;10.02;4.40;;;9.20;99.90;;;;;;5057761;28;20046;-75
2023/12/28 00:21:44;;;;;;;5.10;3.60;;;9.10;99.90;;;;;;5058031;28;20040;-75
2023/12/28 00:24:10;;;;;;;6.68;3.25;;;9.20;99.90;;;;;;5058094;28;20040;-75
2023/12/28 00:26:36;;;;;;;6.05;3.70;;;9.10;99.90;;;;;;5057939;28;20063;-75
2023/12/28 00:29:01;;;;;;;4.50;3.28;;;9.20;99.90;;;;;;5056924;28;20400;-75
2023/12/28 00:31:27;;;;;;;6.03;3.75;;;9.20;99.90;;;;;;5058196;28;20063;-75
2023/12/28 00:33:52;;;;;;;6.28;3.67;;;9.10;99.90;;;;;;5058380;28;20036;-75
2023/12/28 00:36:18;;;;;;;4.93;3.72;;;9.20;99.90;;;;;;5040169;28;20044;-75
2023/12/28 00:38:44;;;;;;;5.78;4.00;;;9.10;99.90;;;;;;5057469;28;20115;-75
2023/12/28 00:41:09;;;;;;;8.27;4.63;;;9.20;99.90;;;;;;5057867;28;20044;-75
2023/12/28 00:43:35;;;;;;;8.75;4.63;;;9.10;99.90;;;;;;5057813;28;20055;-75
2023/12/28 00:46:01;;;;;;;4.28;3.67;;;9.10;99.90;;;;;;5056655;28;20045;-75
2023/12/28 00:48:27;;;;;;;7.97;4.45;;;9.30;99.90;;;;;;5056755;28;20047;-75
2023/12/28 00:50:55;;;;;;;5.10;3.80;;;9.30;99.90;;;;;;5057538;28;20135;-75
2023/12/28 00:53:20;;;;;;;8.13;4.35;;;9.30;99.90;;;;;;5057456;28;20048;-75
2023/12/28 00:55:46;;;;;;;9.88;4.07;;;9.20;99.90;;;;;;5075068;28;20395;-75
2023/12/28 00:58:11;;;;;;;6.63;4.05;;;9.30;99.90;;;;;;5056477;28;20036;-75
2023/12/28 01:00:37;;;;;;;5.65;3.60;;;9.20;99.90;;;;;;5057337;28;20048;-75
2023/12/28 01:03:03;;;;;;;5.32;3.72;;;9.20;99.90;;;;;;5056978;28;20036;-75
2023/12/28 01:05:28;;;;;;;9.15;4.05;;;9.30;99.90;;;;;;5057189;28;20124;-75
2023/12/28 01:07:54;;;;;;;12.43;4.03;;;9.20;99.90;;;;;;5056686;28;20041;-75
2023/12/28 01:10:20;;;;;;;7.45;4.30;;;9.30;99.90;;;;;;5074758;28;20404;-75
2023/12/28 01:12:46;;;;;;;7.95;4.30;;;9.20;99.90;;;;;;5073972;28;20048;-75
2023/12/28 01:15:12;;;;;;;7.47;3.85;;;9.30;99.90;;;;;;5056115;28;20414;-75
2023/12/28 01:17:38;;;;;;;5.93;4.70;;;9.10;99.90;;;;;;5056149;28;20041;-75
2023/12/28 01:20:04;;;;;;;6.45;3.60;;;9.20;99.90;;;;;;5056023;28;20127;-75
2023/12/28 01:22:29;;;;;;;9.40;3.90;;;9.10;99.90;;;;;;5074407;28;20033;-75
2023/12/28 01:24:55;;;;;;;6.80;3.92;;;9.10;99.90;;;;;;5057128;28;20047;-75
2023/12/28 01:27:21;;;;;;;9.13;3.88;;;9.00;99.90;;;;;;5056554;28;20079;-75
2023/12/28 01:29:46;;;;;;;7.80;3.67;;;9.00;99.90;;;;;;5056367;28;20101;-75
2023/12/28 01:32:12;;;;;;;7.95;3.63;;;9.10;99.90;;;;;;5056548;28;20040;-75
2023/12/28 01:34:39;;;;;;;7.22;3.85;;;9.10;99.90;;;;;;5056401;28;20472;-75
2023/12/28 01:37:05;;;;;;;9.88;4.18;;;9.10;99.90;;;;;;5039800;28;20040;-75
2023/12/28 01:39:30;;;;;;;9.10;4.03;;;8.90;99.90;;;;;;5056375;28;20510;-75
2023/12/28 01:41:56;;;;;;;11.38;4.30;;;8.90;99.90;;;;;;5056177;28;20043;-75
2023/12/28 01:44:22;;;;;;;8.57;3.72;;;9.00;99.90;;;;;;5056032;28;20036;-75
2023/12/28 01:46:47;;;;;;;10.93;4.72;;;9.10;99.90;;;;;;5074249;28;20169;-75
2023/12/28 01:49:13;;;;;;;6.78;4.38;;;9.10;99.90;;;;;;5073054;28;20083;-75
2023/12/28 01:51:39;;;;;;;8.27;3.70;;;9.00;99.90;;;;;;5055763;28;20048;-75
2023/12/28 01:54:05;;;;;;;9.38;3.97;;;9.00;99.90;;;;;;5056181;28;20041;-75
2023/12/28 01:56:31;;;;;;;14.20;3.53;;;9.00;99.90;;;;;;5055726;28;20046;-75
2023/12/28 01:58:56;;;;;;;6.75;3.70;;;9.00;99.90;;;;;;5055661;28;20033;-75
2023/12/28 02:01:22;;;;;;;10.35;4.50;;;9.10;99.90;;;;;;5056018;28;20036;-75
2023/12/28 02:03:48;;;;;;;6.18;3.88;;;9.00;99.90;;;;;;5055638;28;20083;-75
2023/12/28 02:06:18;;;;;;;9.43;4.35;;;9.00;99.90;;;;;;5038093;28;20128;-75
2023/12/28 02:08:44;;;;;;;6.50;3.47;;;9.10;99.90;;;;;;5055384;28;20049;-75
2023/12/28 02:11:10;;;;;;;9.93;3.50;;;8.90;99.90;;;;;;5055440;28;20044;-75
2023/12/28 02:13:36;;;;;;;12.27;3.83;;;9.00;99.90;;;;;;5055686;28;20036;-75
2023/12/28 02:16:23;;;;;;;9.23;3.55;;;8.90;99.90;;;;;;5055125;28;20078;-75
2023/12/28 02:18:51;;;;;;;10.27;3.67;;;9.00;99.90;;;;;;5055080;28;20404;-75
2023/12/28 02:21:18;;;;;;;8.38;3.53;;;9.10;99.90;;;;;;5055391;28;20028;-75
2023/12/28 02:23:48;;;;;;;8.40;3.40;;;9.00;99.90;;;;;;5054923;28;20116;-75
2023/12/28 02:26:15;;;;;;;11.43;3.60;;;9.10;99.90;;;;;;5055329;28;20806;-75
2023/12/28 02:28:41;;;;;;;10.23;3.75;;;9.10;99.90;;;;;;5054935;28;20041;-75
2023/12/28 02:31:10;;;;;;;6.75;3.55;;;9.10;99.90;;;;;;5055116;28;20048;-75
2023/12/28 02:33:44;;;;;;;12.93;4.45;;;9.20;99.90;;;;;;5055051;28;20051;-75
2023/12/28 02:36:12;;;;;;;8.00;2.65;;;9.00;99.90;;;;;;5054878;28;20040;-75
2023/12/28 02:38:40;;;;;;;13.68;3.35;;;9.10;99.90;;;;;;5038296;28;20115;-75
2023/12/28 02:41:08;;;;;;;6.57;3.80;;;9.10;99.90;;;;;;5054929;28;20051;-75
2023/12/28 02:43:34;;;;;;;7.38;3.50;;;9.10;99.90;;;;;;5038355;28;20044;-75
2023/12/28 02:46:00;;;;;;;12.52;3.60;;;9.20;99.90;;;;;;5054668;28;20049;-75
2023/12/28 02:48:26;;;;;;;12.95;4.72;;;9.20;99.90;;;;;;5054706;28;20132;-75
2023/12/28 02:50:52;;;;;;;15.60;3.42;;;9.10;99.90;;;;;;5084196;22;20037;-69
2023/12/28 02:53:17;;;;;;;14.93;4.65;;;9.20;99.90;;;;;;5072172;28;20037;-70
2023/12/28 02:55:43;;;;;;;9.07;2.88;;;9.30;99.90;;;;;;5071831;28;20047;-70
2023/12/28 02:58:08;;;;;;;9.35;3.47;;;9.30;99.90;;;;;;5071630;28;20458;-69
2023/12/28 03:00:34;;;;;;;13.52;3.63;;;9.30;99.90;;;;;;5071538;28;20032;-70
2023/12/28 03:03:00;;;;;;;10.63;3.72;;;9.20;99.90;;;;;;5072083;28;20032;-70
2023/12/28 03:05:25;;;;;;;8.88;3.40;;;9.30;99.90;;;;;;5071965;28;20082;-70
2023/12/28 03:07:51;;;;;;;8.98;2.78;;;9.30;99.90;;;;;;5071702;28;20032;-70
2023/12/28 03:10:17;;;;;;;10.25;4.78;;;9.40;99.90;;;;;;5071606;28;20044;-70
2023/12/28 03:12:42;;;;;;;12.50;3.58;;;9.40;99.90;;;;;;5053982;28;20039;-69
2023/12/28 03:15:08;;;;;;;16.92;4.53;;;9.40;99.90;;;;;;5071849;28;20142;-69
2023/12/28 03:17:34;;;;;;;7.63;2.95;;;9.60;99.90;;;;;;5071484;28;20403;-70
2023/12/28 03:20:00;;;;;;;8.20;3.60;;;9.60;99.90;;;;;;5071603;28;20040;-70
2023/12/28 03:22:26;;;;;;;9.25;2.88;;;9.70;99.90;;;;;;5071888;28;20086;-69
2023/12/28 03:24:51;;;;;;;11.02;3.50;;;9.60;99.90;;;;;;5071613;28;20052;-70
2023/12/28 03:27:17;;;;;;;12.75;4.13;;;9.70;99.90;;;;;;5071363;28;20458;-70
2023/12/28 03:29:43;;;;;;;10.00;2.97;;;9.70;99.90;;;;;;5071074;28;20137;-69
2023/12/28 03:32:08;;;;;;;9.85;3.00;;;9.70;99.90;;;;;;5067353;28;20408;-70
2023/12/28 03:34:34;;;;;;;8.65;3.03;;;9.80;99.90;;;;;;5067532;28;20090;-69
2023/12/28 03:37:00;;;;;;;7.07;2.78;;;9.80;99.90;;;;;;5071664;28;20622;-69
2023/12/28 03:39:26;;;;;;;13.82;3.83;;;9.90;99.90;;;;;;5070258;28;20116;-70
2023/12/28 03:41:54;;;;;;;10.15;2.95;;;9.80;99.90;;;;;;5063163;28;20037;-70
2023/12/28 03:44:21;;;;;;;13.60;3.25;;;9.90;99.90;;;;;;5071817;28;20043;-70
2023/12/28 03:46:50;;;;;;;11.32;2.80;;;10.00;99.90;;;;;;5070050;28;20040;-70
2023/12/28 03:49:20;;;;;;;10.57;4.10;;;10.00;99.90;;;;;;5063011;28;20025;-70
2023/12/28 03:51:47;;;;;;;6.03;2.88;;;10.00;99.90;;;;;;5070075;28;20040;-70
2023/12/28 03:54:16;;;;;;;10.98;3.20;;;10.00;99.90;;;;;;5070367;28;20044;-70
2023/12/28 03:56:43;;;;;;;11.93;3.28;;;9.90;99.90;;;;;;5069923;28;20037;-70
2023/12/28 03:59:09;;;;;;;9.10;2.60;;;9.90;99.90;;;;;;5069908;28;20051;-70
2023/12/28 04:01:35;;;;;;;13.35;3.08;;;9.80;99.90;;;;;;5071397;28;20055;-70
2023/12/28 04:04:00;;;;;;;12.65;3.22;;;9.90;99.90;;;;;;5071459;28;20032;-70
2023/12/28 04:06:26;;;;;;;10.48;4.55;;;9.80;99.90;;;;;;5069889;28;20136;-70
2023/12/28 04:08:51;;;;;;;11.50;2.85;;;9.80;99.90;;;;;;5069749;28;20040;-70
2023/12/28 04:11:17;;;;;;;10.52;2.80;;;9.90;99.90;;;;;;5069872;28;20568;-70
2023/12/28 04:13:43;;;;;;;8.50;2.90;;;9.90;99.90;;;;;;5069950;28;20048;-70
2023/12/28 04:16:15;;;;;;;7.18;2.45;;;10.00;99.90;;;;;;5069736;28;20132;-70
2023/12/28 04:18:41;;;;;;;10.45;2.75;;;9.90;99.90;;;;;;5071183;28;20078;-70
2023/12/28 04:21:09;;;;;;;9.23;3.30;;;9.90;99.90;;;;;;5070064;28;20480;-70
2023/12/28 04:23:36;;;;;;;11.43;3.28;;;10.00;99.90;;;;;;5069716;28;20052;-70
2023/12/28 04:26:02;;;;;;;6.85;2.50;;;9.90;99.90;;;;;;5053028;28;20044;-70
2023/12/28 04:28:27;;;;;;;9.05;2.65;;;10.00;99.90;;;;;;5069626;28;20463;-70
2023/12/28 04:30:53;;;;;;;7.97;2.58;;;10.10;99.90;;;;;;5073928;28;20411;-70
2023/12/28 04:33:19;;;;;;;9.27;3.20;;;10.10;99.90;;;;;;5074715;28;20043;-70
2023/12/28 04:35:45;;;;;;;9.35;2.53;;;10.10;99.90;;;;;;5074561;28;20115;-70
2023/12/28 04:38:11;;;;;;;15.15;3.08;;;10.10;99.90;;;;;;5074176;28;20078;-70
2023/12/28 04:40:36;;;;;;;10.07;3.38;;;10.20;99.90;;;;;;5074457;28;20456;-70
2023/12/28 04:43:02;;;;;;;13.48;3.30;;;10.10;99.90;;;;;;5074675;28;20389;-70
2023/12/28 04:45:28;;;;;;;10.02;2.80;;;10.20;99.90;;;;;;5074559;28;20040;-70
2023/12/28 04:47:54;;;;;;;16.88;2.70;;;10.20;99.90;;;;;;5072787;28;20466;-70
2023/12/28 04:50:20;;;;;;;11.98;2.70;;;10.20;99.90;;;;;;5065846;28;20035;-70
2023/12/28 04:52:45;;;;;;;9.57;2.20;;;10.30;99.90;;;;;;5073085;28;20407;-70
2023/12/28 04:55:11;;;;;;;8.90;3.03;;;10.30;99.90;;;;;;5074407;28;20127;-70
2023/12/28 04:57:36;;;;;;;6.60;3.03;;;10.20;99.90;;;;;;5073004;28;20045;-70
2023/12/28 05:00:03;;;;;;;8.82;2.80;;;10.30;99.90;;;;;;5072888;28;20492;-70
2023/12/28 05:02:29;;;;;;;11.65;3.20;;;10.30;99.90;;;;;;5074255;28;20047;-70
2023/12/28 05:04:54;;;;;;;16.13;3.92;;;10.30;99.90;;;;;;5056151;28;20123;-70
2023/12/28 05:07:20;;;;;;;12.57;3.42;;;10.30;99.90;;;;;;5073642;28;20444;-70
2023/12/28 05:09:45;;;;;;;10.90;2.50;;;10.40;99.90;;;;;;5072693;28;20047;-70
2023/12/28 05:12:12;;;;;;;12.55;2.78;;;10.20;99.90;;;;;;5074009;28;20481;-70
2023/12/28 05:14:37;;;;;;;11.27;2.92;;;10.40;99.90;;;;;;5073925;28;20618;-70
2023/12/28 05:17:03;;;;;;;9.65;2.60;;;10.40;99.90;;;;;;5073859;28;20052;-70
2023/12/28 05:19:29;;;;;;;13.32;3.30;;;10.30;99.90;;;;;;5074067;28;20075;-70
2023/12/28 05:21:55;;;;;;;14.68;3.20;;;10.30;99.90;;;;;;5072295;28;20041;-70
2023/12/28 05:24:21;;;;;;;13.13;3.55;;;10.30;99.90;;;;;;5073928;28;20036;-70
2023/12/28 05:26:46;;;;;;;9.70;2.97;;;10.40;99.90;;;;;;5073739;28;20491;-70
2023/12/28 05:29:12;;;;;;;10.20;4.15;;;10.40;99.90;;;;;;5073669;28;20119;-70
2023/12/28 05:31:37;;;;;;;13.68;3.22;;;10.40;99.90;;;;;;5073705;28;20573;-70
2023/12/28 05:34:05;;;;;;;12.82;3.33;;;10.40;99.90;;;;;;5073627;28;20051;-70
2023/12/28 05:36:30;;;;;;;16.25;3.22;;;10.40;99.90;;;;;;5073298;28;20047;-70
2023/12/28 05:38:56;;;;;;;12.18;3.50;;;10.50;99.90;;;;;;5073548;28;20037;-70
2023/12/28 05:41:21;;;;;;;12.05;3.75;;;10.40;99.90;;;;;;5072549;28;20036;-70
2023/12/28 05:43:47;;;;;;;13.57;3.95;;;10.50;99.90;;;;;;5073541;28;20029;-70
2023/12/28 05:46:13;;;;;;;9.48;3.75;;;10.50;99.90;;;;;;5073238;28;20040;-70
2023/12/28 05:48:39;;;;;;;18.38;3.08;;;10.60;99.90;;;;;;5072118;28;20530;-70
2023/12/28 05:51:05;;;;;;;12.27;3.17;;;10.60;99.90;;;;;;5072988;28;20037;-70
2023/12/28 05:53:30;;;;;;;11.90;2.70;;;10.60;99.90;;;;;;5073438;28;20040;-70
2023/12/28 05:55:56;;;;;;;13.65;3.15;;;10.60;99.90;;;;;;5073119;28;20051;-70
2023/12/28 05:58:21;;;;;;;13.30;3.15;;;10.60;99.90;;;;;;5073002;28;20108;-70
2023/12/28 06:00:48;;;;;;;22.70;5.25;;;10.60;99.90;;;;;;5072983;28;20040;-70
2023/12/28 06:03:14;;;;;;;8.85;3.00;;;10.60;99.90;;;;;;5073034;28;20182;-70
2023/12/28 06:05:39;;;;;;;11.48;3.45;;;10.60;99.90;;;;;;5072731;28;20094;-70
2023/12/28 06:08:05;;;;;;;10.35;2.78;;;10.50;99.90;;;;;;5072521;28;20048;-70
2023/12/28 06:10:31;;;;;;;12.43;2.55;;;10.50;99.90;;;;;;5071763;28;20052;-70
2023/12/28 06:12:56;;;;;;;14.07;3.17;;;10.50;99.90;;;;;;5072914;28;20044;-70
2023/12/28 06:15:22;;;;;;;12.82;2.80;;;10.50;99.90;;;;;;5072685;28;20066;-70
2023/12/28 06:17:48;;;;;;;7.05;2.75;;;10.50;99.90;;;;;;5072540;28;20033;-70
2023/12/28 06:20:13;;;;;;;12.52;3.47;;;10.50;99.90;;;;;;5072445;28;20068;-70
2023/12/28 06:22:39;;;;;;;13.38;2.92;;;10.40;99.90;;;;;;5072804;28;20032;-70
2023/12/28 06:25:06;;;;;;;13.02;2.67;;;10.50;99.90;;;;;;5072536;28;20040;-70
2023/12/28 06:27:32;;;;;;;13.88;3.70;;;10.50;99.90;;;;;;5070953;28;20416;-70
2023/12/28 06:29:57;;;;;;;14.02;2.97;;;10.50;99.90;;;;;;5072423;28;20043;-71
2023/12/28 06:32:23;;;;;;;10.57;3.08;;;10.50;99.90;;;;;;5072420;28;20040;-70
2023/12/28 06:34:49;;;;;;;12.10;3.65;;;10.50;99.90;;;;;;5072143;28;20036;-69
2023/12/28 06:37:14;;;;;;;18.40;2.92;;;10.50;99.90;;;;;;5072057;28;20036;-70
2023/12/28 06:39:40;;;;;;;14.55;2.95;;;10.50;99.90;;;;;;5072300;28;20427;-70
2023/12/28 06:42:06;;;;;;;10.82;2.67;;;10.60;99.90;;;;;;5072351;28;20040;-70
2023/12/28 06:44:32;;;;;;;16.27;3.50;;;10.50;99.90;;;;;;5072238;28;20540;-70
2023/12/28 06:46:58;;;;;;;12.93;3.13;;;10.60;99.90;;;;;;5071975;28;20040;-70
2023/12/28 06:49:24;;;;;;;15.80;3.63;;;10.60;99.90;;;;;;5072018;28;20468;-70
2023/12/28 06:51:50;;;;;;;10.02;2.58;;;10.60;99.90;;;;;;5070539;28;20048;-70
2023/12/28 06:54:16;;;;;;;14.40;3.03;;;10.60;99.90;;;;;;5070709;28;20399;-70
2023/12/28 06:56:41;;;;;;;13.90;2.95;;;10.60;99.90;;;;;;5070574;28;20044;-70
2023/12/28 06:59:11;;;;;;;15.07;3.17;;;10.60;99.90;;;;;;5071851;28;20397;-70
2023/12/28 07:01:40;;;;;;;21.35;3.28;;;10.60;99.90;;;;;;5071872;28;20052;-70
2023/12/28 07:04:06;;;;;;;15.30;3.80;;;10.60;99.90;;;;;;5071810;28;20032;-70
2023/12/28 07:06:31;;;;;;;10.95;4.25;;;10.60;99.90;;;;;;5071767;28;20043;-70
2023/12/28 07:08:57;;;;;;;14.05;2.88;;;10.60;99.90;;;;;;5071846;28;20048;-70
2023/12/28 07:11:22;;;;;;;13.27;3.45;;;10.60;99.90;;;;;;5071842;28;20102;-70
2023/12/28 07:13:48;;;;;;;13.20;2.97;;;10.60;99.90;;;;;;5071797;28;20068;-70
2023/12/28 07:16:15;;;;;;;15.57;3.35;;;10.70;99.90;;;;;;5070343;28;20048;-70
2023/12/28 07:18:41;;;;;;;14.85;2.83;;;10.60;99.90;;;;;;5070190;28;20491;-70
2023/12/28 07:21:09;;;;;;;14.05;3.65;;;10.60;99.90;;;;;;5071849;28;20032;-70
2023/12/28 07:23:35;;;;;;;14.98;2.80;;;10.70;99.90;;;;;;5071843;28;20390;-70
2023/12/28 07:26:01;;;;;;;10.10;3.45;;;10.70;99.90;;;;;;5070516;28;20090;-70
2023/12/28 07:28:26;;;;;;;8.90;3.08;;;10.60;99.90;;;;;;5071554;28;20040;-70
2023/12/28 07:30:53;;;;;;;22.08;3.92;;;10.70;99.90;;;;;;5071551;28;20037;-70
2023/12/28 07:33:19;;;;;;;13.45;3.70;;;10.60;99.90;;;;;;5070716;28;20485;-70
2023/12/28 07:35:44;;;;;;;14.02;3.30;;;10.60;99.90;;;;;;5070398;28;20056;-70
2023/12/28 07:38:10;;;;;;;15.95;3.85;;;10.60;99.90;;;;;;5071429;28;20032;-70
2023/12/28 07:40:36;;;;;;;14.98;3.90;;;10.60;99.90;;;;;;5070196;28;20036;-70
2023/12/28 07:43:01;;;;;;;17.33;3.40;;;10.70;99.90;;;;;;5070161;28;20040;-70
2023/12/28 07:45:27;;;;;;;15.15;3.40;;;10.60;99.90;;;;;;5070108;28;20532;-70
2023/12/28 07:47:52;;;;;;;12.88;3.13;;;10.70;99.90;;;;;;5069746;28;20106;-70
2023/12/28 07:50:19;;;;;;;14.27;3.72;;;10.70;99.90;;;;;;5071137;28;20041;-70
2023/12/28 07:52:46;;;;;;;15.23;3.25;;;10.70;99.90;;;;;;5071265;28;20165;-70
2023/12/28 07:55:12;;;;;;;21.20;3.88;;;10.70;99.90;;;;;;5071256;28;20133;-70
2023/12/28 07:57:37;;;;;;;19.13;3.95;;;10.70;99.90;;;;;;5071163;28;20523;-70
2023/12/28 08:00:04;;;;;;;15.85;3.33;;;10.70;99.90;;;;;;5071228;28;20421;-70
2023/12/28 08:02:29;;;;;;;13.90;3.92;;;10.70;99.90;;;;;;5070039;28;20047;-71
2023/12/28 08:04:55;;;;;;;17.08;3.38;;;10.70;99.90;;;;;;5072961;28;20028;-70
2023/12/28 08:07:21;;;;;;;9.02;3.05;;;10.70;99.90;;;;;;5066227;28;20072;-70
2023/12/28 08:09:46;;;;;;;17.77;3.45;;;10.70;99.90;;;;;;5066002;28;20040;-70
2023/12/28 08:12:12;;;;;;;18.85;3.38;;;10.80;99.90;;;;;;5064339;28;20079;-70
2023/12/28 08:14:40;;;;;;;16.90;3.50;;;10.70;99.90;;;;;;5071365;28;20032;-70
2023/12/28 08:17:06;;;;;;;16.17;3.85;;;10.80;99.90;;;;;;5074068;28;20040;-72
2023/12/28 08:19:32;;;;;;;14.73;3.80;;;10.80;99.90;;;;;;5075137;28;20044;-70
2023/12/28 08:21:57;;;;;;;17.40;3.30;;;10.80;99.90;;;;;;5073848;28;20037;-71
2023/12/28 08:24:23;;;;;;;23.60;4.32;;;10.80;99.90;;;;;;5074892;28;20124;-70
2023/12/28 08:26:48;;;;;;;26.77;5.43;;;10.80;99.90;;;;;;5074752;28;20033;-69
2023/12/28 08:29:14;;;;;;;14.23;3.00;;;10.80;99.90;;;;;;5074418;28;20531;-70
2023/12/28 08:31:40;;;;;;;14.35;3.30;;;10.80;99.90;;;;;;5074548;28;20036;-70
2023/12/28 08:34:06;;;;;;;19.13;4.30;;;10.90;99.90;;;;;;5074800;28;20552;-71
2023/12/28 08:36:32;;;;;;;23.30;4.93;;;10.90;99.90;;;;;;5074624;28;20119;-70
2023/12/28 08:38:57;;;;;;;17.63;4.20;;;10.90;99.90;;;;;;5074423;28;20086;-71
2023/12/28 08:41:23;;;;;;;17.85;4.70;;;10.90;99.90;;;;;;5074487;28;20519;-70
2023/12/28 08:43:50;;;;;;;17.15;5.53;;;10.90;99.90;;;;;;5074578;28;20082;-70
2023/12/28 08:46:16;;;;;;;13.25;3.22;;;10.80;99.90;;;;;;5073013;28;20052;-70
2023/12/28 08:48:44;;;;;;;15.82;3.70;;;10.90;99.90;;;;;;5074455;28;20036;-70
2023/12/28 08:51:11;;;;;;;18.25;3.70;;;10.80;99.90;;;;;;5097319;22;20561;-77
2023/12/28 08:53:37;;;;;;;22.30;3.90;;;10.90;99.90;;;;;;5056401;28;20086;-79
2023/12/28 08:56:12;;;;;;;19.85;4.43;;;10.80;99.90;;;;;;5056037;28;20120;-78
2023/12/28 08:58:38;;;;;;;18.75;4.97;;;10.80;99.90;;;;;;5039286;28;20492;-77
2023/12/28 09:01:03;;;;;;;20.25;3.58;;;10.90;99.90;;;;;;5055599;28;20044;-78
2023/12/28 09:03:29;;;;;;;14.43;3.10;;;10.80;99.90;;;;;;5056186;28;20037;-77
2023/12/28 09:05:55;;;;;;;29.77;5.85;;;10.80;99.90;;;;;;5073616;28;20385;-78
2023/12/28 09:08:20;;;;;;;23.85;5.03;;;10.90;99.90;;;;;;5055365;28;20123;-78
2023/12/28 09:10:46;;;;;;;24.33;5.68;;;10.90;99.90;;;;;;5055695;28;20070;-77
2023/12/28 09:13:16;;;;;;;22.17;4.32;;;10.90;99.90;;;;;;5055472;28;20040;-77
2023/12/28 09:15:42;;;;;;;21.10;4.45;;;10.80;99.90;;;;;;5055704;28;20036;-77
2023/12/28 09:18:08;;;;;;;23.45;3.97;;;10.90;99.90;;;;;;5055259;28;20032;-78
2023/12/28 09:20:35;;;;;;;16.33;3.38;;;10.90;99.90;;;;;;5055677;28;20128;-77
2023/12/28 09:23:01;;;;;;;22.75;4.68;;;10.90;99.90;;;;;;5055667;28;20037;-77
2023/12/28 09:25:26;;;;;;;24.70;4.95;;;10.90;99.90;;;;;;5055702;28;20044;-77
2023/12/28 09:27:53;;;;;;;18.83;4.18;;;10.90;99.90;;;;;;5055176;28;20385;-77
2023/12/28 09:30:19;;;;;;;17.88;4.05;;;10.90;99.90;;;;;;5055265;28;20059;-77
2023/12/28 09:32:45;;;;;;;18.38;4.03;;;10.90;99.90;;;;;;5057770;28;20514;-77
2023/12/28 09:35:10;;;;;;;24.45;3.92;;;11.00;99.90;;;;;;5056523;28;20083;-77
2023/12/28 09:37:36;;;;;;;20.15;3.75;;;10.90;99.90;;;;;;5049277;28;20033;-78
2023/12/28 09:40:03;;;;;;;21.15;4.22;;;11.00;99.90;;;;;;5030434;28;20033;-79
2023/12/28 09:42:45;;;;;;;17.75;5.35;;;10.90;99.90;;;;;;5055972;28;20543;-77
2023/12/28 09:45:11;;;;;;;24.67;5.32;;;10.90;99.90;;;;;;5055358;28;20041;-77
2023/12/28 09:47:37;;;;;;;25.85;4.22;;;11.00;99.90;;;;;;5055066;28;20083;-77
2023/12/28 09:50:04;;;;;;;21.48;3.55;;;10.90;99.90;;;;;;5038897;28;20486;-78
2023/12/28 09:52:30;;;;;;;17.90;3.65;;;10.90;99.90;;;;;;5043356;28;20052;-77
2023/12/28 09:54:55;;;;;;;19.02;4.00;;;10.70;99.90;;;;;;5052892;28;20496;-77
2023/12/28 09:57:21;;;;;;;20.10;4.82;;;10.80;99.90;;;;;;5054988;28;20061;-77
2023/12/28 09:59:47;;;;;;;22.55;4.43;;;10.70;99.90;;;;;;5073028;28;20478;-77
2023/12/28 10:02:14;;;;;;;16.73;5.18;;;10.60;99.90;;;;;;5055265;28;20037;-77
2023/12/28 10:04:40;;;;;;;18.67;3.22;;;10.60;99.90;;;;;;5054949;28;20033;-78
2023/12/28 10:07:05;;;;;;;15.07;4.07;;;10.60;99.90;;;;;;5054724;28;20072;-77
2023/12/28 10:09:31;;;;;;;22.58;3.90;;;10.60;99.90;;;;;;5054917;28;20045;-77
2023/12/28 10:11:58;;;;;;;22.30;3.95;;;10.60;99.90;;;;;;5054962;28;20036;-78
2023/12/28 10:14:25;;;;;;;19.02;3.95;;;10.70;99.90;;;;;;5054762;28;20043;-77
2023/12/28 10:16:50;;;;;;;23.77;5.85;;;10.70;99.90;;;;;;5054596;28;20561;-78
2023/12/28 10:19:21;;;;;;;16.67;3.75;;;10.70;99.90;;;;;;5054620;28;20033;-77
2023/12/28 10:21:47;;;;;;;20.10;4.35;;;10.80;99.90;;;;;;5037951;28;20041;-77
2023/12/28 10:24:13;;;;;;;15.73;3.20;;;10.80;99.90;;;;;;5037896;28;20033;-78
2023/12/28 10:26:39;;;;;;;21.90;3.55;;;10.80;99.90;;;;;;5054328;28;20033;-78
2023/12/28 10:29:05;;;;;;;25.60;4.13;;;10.90;99.90;;;;;;5053932;28;20480;-77
2023/12/28 10:31:30;;;;;;;24.63;4.72;;;10.80;99.90;;;;;;5054454;28;20416;-77
2023/12/28 10:34:02;;;;;;;21.63;4.63;;;11.00;99.90;;;;;;5054466;28;20052;-77
2023/12/28 10:36:27;;;;;;;24.52;6.03;;;11.00;99.90;;;;;;5054145;28;20120;-77
2023/12/28 10:38:54;;;;;;;12.00;3.47;;;11.00;99.90;;;;;;5054471;28;20479;-76
2023/12/28 10:41:21;;;;;;;19.80;3.72;;;11.00;99.90;;;;;;5049543;28;20041;-76
2023/12/28 10:44:03;;;;;;;17.52;3.45;;;11.00;99.90;;;;;;5050772;28;20044;-77
2023/12/28 10:46:31;;;;;;;19.45;4.88;;;11.10;99.90;;;;;;5037549;28;20115;-76
2023/12/28 10:49:09;;;;;;;17.90;3.53;;;11.10;99.90;;;;;;5054166;28;20496;-77
2023/12/28 10:51:36;;;;;;;16.73;4.65;;;11.00;99.90;;;;;;5053964;28;20037;-78
2023/12/28 10:54:21;;;;;;;22.33;4.43;;;11.10;99.90;;;;;;5053767;28;20068;-76
2023/12/28 10:57:01;;;;;;;19.63;4.50;;;11.10;99.90;;;;;;5036075;28;20052;-76
2023/12/28 10:59:41;;;;;;;20.10;4.07;;;11.10;99.90;;;;;;5036460;28;20044;-77
2023/12/28 11:02:09;;;;;;;15.52;3.85;;;11.20;99.90;;;;;;5053434;28;20064;-77
2023/12/28 11:04:44;;;;;;;10.35;3.60;;;11.30;99.90;;;;;;5053408;28;20040;-77
2023/12/28 11:07:12;;;;;;;13.50;3.47;;;11.20;99.90;;;;;;5052592;28;20130;-75
2023/12/28 11:09:39;;;;;;;26.50;5.03;;;11.30;99.90;;;;;;5052766;28;20047;-77
2023/12/28 11:12:08;;;;;;;15.70;3.45;;;11.20;99.90;;;;;;5053456;28;20044;-77
2023/12/28 11:14:35;;;;;;;16.60;3.17;;;11.20;99.90;;;;;;5053683;28;20037;-77
2023/12/28 11:17:01;;;;;;;16.23;3.22;;;11.20;99.90;;;;;;5036898;28;20040;-77
2023/12/28 11:19:29;;;;;;;15.52;3.42;;;11.20;99.90;;;;;;5053749;28;20047;-77
2023/12/28 11:21:56;;;;;;;20.17;4.47;;;11.20;99.90;;;;;;5053428;28;20090;-76
2023/12/28 11:24:23;;;;;;;27.58;5.55;;;11.20;99.90;;;;;;5053541;28;20044;-77
2023/12/28 11:26:55;;;;;;;20.17;3.95;;;11.20;99.90;;;;;;5053397;28;20056;-77
2023/12/28 11:29:21;;;;;;;12.90;4.50;;;11.10;99.90;;;;;;5037066;28;20052;-77
2023/12/28 11:31:54;;;;;;;20.02;3.20;;;11.10;99.90;;;;;;5052869;28;20071;-77
2023/12/28 11:34:30;;;;;;;17.92;3.92;;;11.00;99.90;;;;;;5053578;28;20063;-77
2023/12/28 11:36:59;;;;;;;16.58;3.63;;;11.00;99.90;;;;;;5036473;28;20036;-77
2023/12/28 11:39:33;;;;;;;14.70;3.35;;;11.10;99.90;;;;;;5054052;28;20586;-78
2023/12/28 11:42:03;;;;;;;25.27;3.88;;;11.10;99.90;;;;;;5057574;28;20043;-77
2023/12/28 11:44:37;;;;;;;16.33;4.43;;;11.10;99.90;;;;;;5040976;28;20039;-77
2023/12/28 11:47:35;;;;;;;24.80;4.03;;;10.90;99.90;;;;;;5057599;28;20044;-77
2023/12/28 11:50:07;;;;;;;17.05;4.00;;;10.90;99.90;;;;;;5024495;28;20393;-78
2023/12/28 11:52:34;;;;;;;17.10;4.53;;;10.60;99.90;;;;;;5056915;28;20526;-78
2023/12/28 11:55:00;;;;;;;23.92;4.22;;;10.70;99.90;;;;;;5056876;28;20102;-77
2023/12/28 11:57:26;;;;;;;16.75;4.47;;;10.60;99.90;;;;;;5056295;28;20115;-78
2023/12/28 11:59:59;;;;;;;13.73;4.57;;;10.60;99.90;;;;;;5057287;28;20075;-78
2023/12/28 12:02:26;;;;;;;13.68;4.45;;;10.60;99.90;;;;;;5056419;28;20094;-77
2023/12/28 12:04:53;;;;;;;21.95;4.72;;;10.60;99.90;;;;;;5057756;28;20124;-77
2023/12/28 12:07:19;;;;;;;16.55;3.97;;;10.70;99.90;;;;;;5056420;28;20036;-77
2023/12/28 12:09:45;;;;;;;24.00;4.68;;;10.80;99.90;;;;;;5039425;28;20444;-75
2023/12/28 12:12:11;;;;;;;27.23;5.10;;;10.80;99.90;;;;;;5036850;28;20041;-75
2023/12/28 12:14:36;;;;;;;16.30;4.07;;;10.80;99.90;;;;;;5037062;28;20033;-75
2023/12/28 12:17:04;;;;;;;21.67;3.83;;;10.80;99.90;;;;;;5036885;28;20033;-75
2023/12/28 12:19:30;;;;;;;25.00;4.93;;;10.90;99.90;;;;;;5055167;28;20029;-75
2023/12/28 12:21:56;;;;;;;23.30;6.07;;;10.80;99.90;;;;;;5037288;28;20033;-75
2023/12/28 12:24:22;;;;;;;20.65;5.40;;;10.80;99.90;;;;;;5036972;28;20447;-75
2023/12/28 12:26:51;;;;;;;14.25;3.22;;;10.80;99.90;;;;;;5036770;28;20548;-75
2023/12/28 12:29:16;;;;;;;25.45;5.13;;;10.90;99.90;;;;;;5037039;28;20052;-75
2023/12/28 12:31:44;;;;;;;20.98;4.88;;;10.90;99.90;;;;;;5020225;28;20037;-75
2023/12/28 12:34:10;;;;;;;14.65;3.67;;;10.80;99.90;;;;;;5036775;28;20049;-75
2023/12/28 12:36:37;;;;;;;26.02;5.45;;;10.80;99.90;;;;;;5036664;28;20033;-75
2023/12/28 12:39:07;;;;;;;21.73;3.88;;;10.90;99.90;;;;;;5036427;28;20048;-75
2023/12/28 12:41:36;;;;;;;20.77;4.68;;;10.80;99.90;;;;;;5036377;28;20040;-75